Welcome to Northern Hawkes Bay. New Zealand.
PWS Header
      nz Flag



Hit Counter


W3C Valid W3C Valid logo


    Wairoa

Select any of the Stations below to visit their websites.










Historic Data from Weather Underground
Select the location of interest below. Wairoa is the default. Please have patience, this Data is slow to load in.
Northern Hawkes Bay Historical Data
Daily Summary for May 6, 2017 Units:  English    Metric   Both
« Previous Day
Next Day »
Daily Weekly Monthly Yearly Custom
  High: Low: Average:
Temperature: 65.7 °F 40.5 °F 50.5 °F
Dew Point: 54.9 °F 40.3 °F 46 °F
Humidity: 99% 61% 86%
Wind Speed: 7.6mph 0mph 3.3mph
Wind Gust: 10.7mph - -
Wind- - WNW
Pressure: 30.4 in 30.3 in -
Precipitation: 0 in    
Historical Graphs
 
 
Tabular Data for May 6, 2017
Time Temperature Dew Point Pressure Wind Wind Speed Wind Gust Humidity Rainfall Rate (Hourly) solar
00:01 62.6 °F 48.9 °F 30.3 in SW 3.1 mph 6.9 mph 61% 0 in 79 W/m2
00:06 62.4 °F 49.3 °F 30.3 in SW 3.1 mph 6.9 mph 62% 0 in 63 W/m2
00:11 62.2 °F 49.5 °F 30.3 in SW 2.2 mph 6.9 mph 63% 0 in 55 W/m2
00:16 62.8 °F 49.1 °F 30.3 in WSW 3.1 mph 6 mph 61% 0 in 49 W/m2
00:21 62.4 °F 49.3 °F 30.3 in WSW 2.2 mph 6 mph 62% 0 in 48 W/m2
00:26 62.2 °F 49.1 °F 30.3 in SW 2.2 mph 6 mph 62% 0 in 50 W/m2
00:31 62.4 °F 49.3 °F 30.3 in SW 2.2 mph 4.5 mph 62% 0 in 49 W/m2
00:36 62.6 °F 49.5 °F 30.3 in WSW 0.7 mph 3.8 mph 62% 0 in 47 W/m2
00:41 62.6 °F 48.9 °F 30.3 in WSW 0.7 mph 3.1 mph 61% 0 in 44 W/m2
00:46 62.6 °F 49.5 °F 30.3 in Calm   3.1 mph 62% 0 in 37 W/m2
00:51 63 °F 49.3 °F 30.3 in Calm   2.2 mph 61% 0 in 30 W/m2
00:56 62.2 °F 49.1 °F 30.3 in WNW 0.7 mph 3.1 mph 62% 0 in 22 W/m2
01:01 61 °F 48.4 °F 30.3 in NW 1.6 mph 3.1 mph 63% 0 in 13 W/m2
01:06 59.2 °F 47.8 °F 30.3 in Calm   2.2 mph 66% 0 in 9 W/m2
01:11 57.9 °F 47.8 °F 30.3 in Calm   2.2 mph 69% 0 in 6 W/m2
01:16 57 °F 48 °F 30.3 in Calm     72% 0 in 3 W/m2
01:21 56.3 °F 47.8 °F 30.3 in Calm     73% 0 in 0 W/m2
01:26 55.8 °F 48 °F 30.3 in Calm     75% 0 in 0 W/m2
01:31 55.2 °F 47.8 °F 30.3 in Calm   1.6 mph 76% 0 in 0 W/m2
01:36 54.7 °F 47.7 °F 30.3 in Calm   1.6 mph 77% 0 in 0 W/m2
01:41 54.1 °F 47.5 °F 30.3 in Calm   1.6 mph 78% 0 in 0 W/m2
01:46 53.6 °F 47.7 °F 30.3 in Calm   1.6 mph 80% 0 in 0 W/m2
01:51 53.2 °F 47.8 °F 30.3 in Calm   1.6 mph 82% 0 in 0 W/m2
01:56 52.7 °F 47.7 °F 30.3 in Calm     83% 0 in 0 W/m2
02:01 52.5 °F 47.8 °F 30.3 in Calm     84% 0 in 0 W/m2
02:06 52.2 °F 47.5 °F 30.3 in Calm     84% 0 in 0 W/m2
02:12 51.8 °F 47.5 °F 30.3 in Calm   1.6 mph 85% 0 in 0 W/m2
02:17 51.6 °F 47.8 °F 30.4 in North 0.7 mph 3.8 mph 87% 0 in 0 W/m2
02:22 51.6 °F 48.2 °F 30.4 in Calm   3.8 mph 88% 0 in 0 W/m2
02:27 51.4 °F 48.4 °F 30.3 in Calm   1.6 mph 89% 0 in 0 W/m2
02:32 51.3 °F 48 °F 30.4 in Calm     89% 0 in 0 W/m2
02:37 50.9 °F 47.8 °F 30.4 in Calm     89% 0 in 0 W/m2
02:42 50.7 °F 47.7 °F 30.4 in Calm     89% 0 in 0 W/m2
02:47 50.4 °F 47.5 °F 30.4 in Calm   2.2 mph 90% 0 in 0 W/m2
02:52 50 °F 47.1 °F 30.3 in Calm   2.2 mph 90% 0 in 0 W/m2
02:57 49.8 °F 47.3 °F 30.4 in Calm     91% 0 in 0 W/m2
03:02 49.3 °F 47.1 °F 30.4 in Calm   1.6 mph 92% 0 in 0 W/m2
03:07 48.9 °F 46.8 °F 30.4 in Calm   1.6 mph 92% 0 in 0 W/m2
03:12 48.7 °F 46.8 °F 30.4 in NW 1.6 mph 3.1 mph 93% 0 in 0 W/m2
03:17 48.7 °F 47.1 °F 30.4 in Calm   3.1 mph 94% 0 in 0 W/m2
03:22 48.7 °F 47.1 °F 30.4 in Calm   3.1 mph 94% 0 in 0 W/m2
03:27 48.7 °F 47.1 °F 30.4 in NNW 2.2 mph 3.1 mph 94% 0 in 0 W/m2
03:32 48.6 °F 46.9 °F 30.4 in Calm   4.5 mph 94% 0 in 0 W/m2
03:37 48.6 °F 47.1 °F 30.4 in Calm   4.5 mph 95% 0 in 0 W/m2
03:42 48.4 °F 46.9 °F 30.4 in Calm   3.1 mph 95% 0 in 0 W/m2
03:48 48.2 °F 46.8 °F 30.4 in NNW 1.6 mph 3.8 mph 95% 0 in 0 W/m2
03:53 48.2 °F 46.8 °F 30.4 in NNW 3.1 mph 4.5 mph 95% 0 in 0 W/m2
03:58 48.4 °F 46.9 °F 30.4 in NNW 3.8 mph 5.4 mph 95% 0 in 0 W/m2
04:02 48.6 °F 47.1 °F 30.4 in NNW 2.2 mph 6 mph 95% 0 in 0 W/m2
04:08 48.9 °F 47.7 °F 30.4 in NNW 5.4 mph 7.6 mph 95% 0 in 0 W/m2
04:18 49.3 °F 47.8 °F 30.4 in NNW 3.1 mph 7.6 mph 95% 0 in 0 W/m2
04:24 49.1 °F 47.5 °F 30.4 in NNW 2.2 mph 6.9 mph 94% 0 in 0 W/m2
04:28 48.9 °F 47.3 °F 30.4 in NNW 1.6 mph 6 mph 94% 0 in 0 W/m2
04:34 48.6 °F 46.9 °F 30.4 in NNW 2.2 mph 3.8 mph 94% 0 in 0 W/m2
04:39 48.4 °F 46.8 °F 30.4 in NW 2.2 mph 3.8 mph 94% 0 in 0 W/m2
04:43 48.2 °F 46.6 °F 30.4 in NW 3.1 mph 4.5 mph 94% 0 in 0 W/m2
04:49 48 °F 46.8 °F 30.4 in NNW 2.2 mph 5.4 mph 95% 0 in 0 W/m2
04:54 48 °F 46.8 °F 30.4 in NNW 3.1 mph 6.9 mph 95% 0 in 0 W/m2
04:59 48.2 °F 46.8 °F 30.4 in NNW 0.7 mph 6.9 mph 95% 0 in 0 W/m2
05:09 48.2 °F 46.8 °F 30.4 in NNW 3.1 mph 6 mph 95% 0 in 0 W/m2
05:14 48 °F 46.9 °F 30.4 in NNW 2.2 mph 6 mph 96% 0 in 0 W/m2
05:19 47.8 °F 46.8 °F 30.4 in NNW 3.1 mph 6 mph 96% 0 in 0 W/m2
05:24 47.8 °F 46.8 °F 30.4 in NNW 2.2 mph 6 mph 96% 0 in 0 W/m2
05:29 47.7 °F 46.6 °F 30.4 in NW 3.8 mph 5.4 mph 96% 0 in 0 W/m2
05:34 47.5 °F 46 °F 30.4 in NW 3.8 mph 5.4 mph 95% 0 in 0 W/m2
05:40 47.1 °F 45.9 °F 30.4 in NW 3.1 mph 5.4 mph 95% 0 in 0 W/m2
05:46 47.1 °F 46 °F 30.4 in NW 3.1 mph 5.4 mph 96% 0 in 0 W/m2
05:51 46.9 °F 45.9 °F 30.4 in NW 3.8 mph 5.4 mph 96% 0 in 0 W/m2
05:55 46.9 °F 45.9 °F 30.4 in NW 2.2 mph 6.9 mph 96% 0 in 0 W/m2
06:01 46.8 °F 45.7 °F 30.4 in NNW 3.8 mph 6.9 mph 96% 0 in 0 W/m2
06:06 46.8 °F 45.7 °F 30.4 in NW 3.1 mph 6 mph 96% 0 in 0 W/m2
06:11 46.6 °F 45.5 °F 30.4 in NW 3.8 mph 6 mph 96% 0 in 0 W/m2
06:15 46.4 °F 45.3 °F 30.4 in NW 3.8 mph 5.4 mph 96% 0 in 0 W/m2
06:21 46.4 °F 45.7 °F 30.4 in NW 3.1 mph 5.4 mph 97% 0 in 0 W/m2
06:27 46.2 °F 45.3 °F 30.4 in NNW 3.1 mph 6 mph 97% 0 in 0 W/m2
06:32 46.2 °F 45.3 °F 30.4 in NNW 3.1 mph 6 mph 97% 0 in 0 W/m2
06:36 46 °F 45.1 °F 30.4 in NNW 3.1 mph 6 mph 97% 0 in 0 W/m2
06:42 46 °F 45.1 °F 30.4 in NNW 3.1 mph 5.4 mph 97% 0 in 0 W/m2
06:47 45.9 °F 45.1 °F 30.4 in NW 3.8 mph 5.4 mph 97% 0 in 0 W/m2
06:51 45.9 °F 45.1 °F 30.4 in NW 2.2 mph 6 mph 97% 0 in 0 W/m2
06:57 45.7 °F 45 °F 30.4 in NW 3.1 mph 6 mph 97% 0 in 0 W/m2
07:01 45.7 °F 45 °F 30.4 in NW 3.1 mph 5.4 mph 97% 0 in 0 W/m2
07:06 45.5 °F 44.8 °F 30.4 in NNW 3.1 mph 5.4 mph 97% 0 in 0 W/m2
07:11 45.3 °F 44.4 °F 30.4 in NNW 3.8 mph 5.4 mph 97% 0 in 0 W/m2
07:17 45.3 °F 44.4 °F 30.4 in NW 3.1 mph 6 mph 97% 0 in 0 W/m2
07:21 45.3 °F 44.4 °F 30.4 in NNW 3.8 mph 6 mph 97% 0 in 0 W/m2
07:26 45.1 °F 44.2 °F 30.4 in NNW 3.8 mph 6 mph 97% 0 in 0 W/m2
07:32 45.1 °F 44.2 °F 30.4 in NW 3.1 mph 6.9 mph 97% 0 in 0 W/m2
07:38 45 °F 44.2 °F 30.4 in NNW 3.1 mph 6.9 mph 97% 0 in 0 W/m2
07:43 44.8 °F 44.1 °F 30.4 in NNW 2.2 mph 6 mph 97% 0 in 0 W/m2
07:47 44.6 °F 43.9 °F 30.4 in NW 3.1 mph 4.5 mph 97% 0 in 0 W/m2
07:52 44.6 °F 43.9 °F 30.4 in NNW 3.1 mph 5.4 mph 97% 0 in 0 W/m2
07:58 44.6 °F 43.9 °F 30.4 in NNW 3.8 mph 6 mph 97% 0 in 0 W/m2
08:03 44.6 °F 43.9 °F 30.4 in NW 3.1 mph 6 mph 97% 0 in 0 W/m2
08:07 44.8 °F 44.1 °F 30.4 in NNW 2.2 mph 6 mph 97% 0 in 0 W/m2
08:13 45 °F 44.2 °F 30.4 in NNW 3.1 mph 6.9 mph 97% 0 in 0 W/m2
08:18 45 °F 44.2 °F 30.4 in NNW 3.8 mph 6.9 mph 97% 0 in 0 W/m2
08:23 45.1 °F 44.2 °F 30.4 in NW 4.5 mph 6.9 mph 97% 0 in 0 W/m2
08:28 45 °F 44.2 °F 30.4 in NNW 3.8 mph 6.9 mph 97% 0 in 0 W/m2
08:33 45 °F 44.2 °F 30.4 in NNW 3.8 mph 6.9 mph 97% 0 in 0 W/m2
08:38 44.8 °F 44.1 °F 30.4 in NNW 3.1 mph 6 mph 97% 0 in 0 W/m2
08:43 44.6 °F 43.9 °F 30.4 in NNW 2.2 mph 6 mph 97% 0 in 0 W/m2
08:48 44.2 °F 43.7 °F 30.4 in NNW 3.8 mph 5.4 mph 98% 0 in 0 W/m2
08:53 44.2 °F 43.7 °F 30.4 in NNW 2.2 mph 5.4 mph 98% 0 in 0 W/m2
08:58 44.1 °F 43.5 °F 30.4 in NNW 3.8 mph 6 mph 98% 0 in 0 W/m2
09:03 43.9 °F 43.3 °F 30.4 in NNW 3.8 mph 6 mph 98% 0 in 0 W/m2
09:08 43.7 °F 43.2 °F 30.4 in NNW 3.8 mph 6 mph 98% 0 in 0 W/m2
09:13 43.9 °F 43.3 °F 30.4 in NNW 3.8 mph 7.6 mph 98% 0 in 0 W/m2
09:17 43.9 °F 43.3 °F 30.4 in NNW 3.1 mph 7.6 mph 98% 0 in 0 W/m2
09:23 43.7 °F 43.2 °F 30.4 in NNW 3.8 mph 6 mph 98% 0 in 0 W/m2
09:28 43.9 °F 43.3 °F 30.4 in NNW 5.4 mph 6.9 mph 98% 0 in 0 W/m2
09:33 44.1 °F 43.5 °F 30.4 in NNW 5.4 mph 6.9 mph 98% 0 in 0 W/m2
09:38 44.2 °F 43.7 °F 30.4 in NNW 6.9 mph 9.2 mph 98% 0 in 0 W/m2
09:43 44.4 °F 43.9 °F 30.4 in NNW 7.6 mph 9.8 mph 98% 0 in 0 W/m2
09:48 44.2 °F 43.7 °F 30.4 in NNW 6 mph 9.8 mph 98% 0 in 0 W/m2
09:53 44.2 °F 43.7 °F 30.4 in NNW 4.5 mph 9.8 mph 98% 0 in 0 W/m2
09:58 44.1 °F 43.5 °F 30.4 in NNW 3.8 mph 8.3 mph 98% 0 in 0 W/m2
10:03 43.7 °F 43.2 °F 30.4 in North 3.1 mph 7.6 mph 98% 0 in 0 W/m2
10:07 43.5 °F 43 °F 30.4 in NNW 3.1 mph 7.6 mph 98% 0 in 0 W/m2
10:13 43.3 °F 42.8 °F 30.4 in NNW 4.5 mph 6.9 mph 98% 0 in 0 W/m2
10:18 43.3 °F 42.8 °F 30.4 in NNW 3.8 mph 6 mph 98% 0 in 0 W/m2
10:23 43.3 °F 42.8 °F 30.4 in NNW 5.4 mph 6.9 mph 98% 0 in 0 W/m2
10:28 43.5 °F 43 °F 30.4 in NNW 4.5 mph 8.3 mph 98% 0 in 0 W/m2
10:33 43.5 °F 43 °F 30.4 in NNW 3.8 mph 8.3 mph 98% 0 in 0 W/m2
10:38 43.3 °F 42.8 °F 30.4 in NNW 3.8 mph 8.3 mph 98% 0 in 0 W/m2
10:43 43 °F 42.4 °F 30.4 in NNW 3.1 mph 7.6 mph 98% 0 in 0 W/m2
10:47 42.8 °F 42.3 °F 30.4 in NNW 3.8 mph 6 mph 98% 0 in 0 W/m2
10:53 42.8 °F 42.3 °F 30.4 in NNW 4.5 mph 7.6 mph 98% 0 in 0 W/m2
10:58 42.8 °F 42.3 °F 30.4 in NNW 3.8 mph 8.3 mph 98% 0 in 0 W/m2
11:03 42.8 °F 42.3 °F 30.4 in NNW 4.5 mph 8.3 mph 98% 0 in 0 W/m2
11:08 42.8 °F 42.3 °F 30.4 in NNW 3.1 mph 8.3 mph 98% 0 in 0 W/m2
11:14 42.8 °F 42.3 °F 30.4 in NNW 4.5 mph 8.3 mph 98% 0 in 0 W/m2
11:19 42.8 °F 42.3 °F 30.4 in NNW 4.5 mph 9.8 mph 98% 0 in 0 W/m2
11:24 42.8 °F 42.3 °F 30.4 in NNW 3.1 mph 9.8 mph 98% 0 in 0 W/m2
11:29 42.8 °F 42.3 °F 30.4 in NNW 3.1 mph 9.8 mph 98% 0 in 0 W/m2
11:34 42.8 °F 42.3 °F 30.4 in NNW 3.8 mph 7.6 mph 98% 0 in 0 W/m2
11:39 42.8 °F 42.3 °F 30.4 in NNW 4.5 mph 7.6 mph 98% 0 in 0 W/m2
11:44 42.4 °F 42.3 °F 30.4 in NNW 3.8 mph 7.6 mph 99% 0 in 0 W/m2
11:49 42.3 °F 42.1 °F 30.4 in NW 4.5 mph 6.9 mph 99% 0 in 0 W/m2
11:54 42.1 °F 41.7 °F 30.4 in NNW 3.8 mph 6.9 mph 99% 0 in 0 W/m2
11:59 42.1 °F 41.7 °F 30.4 in NNW 3.8 mph 6.9 mph 99% 0 in 0 W/m2
12:04 41.9 °F 41.5 °F 30.4 in NW 4.5 mph 6.9 mph 99% 0 in 0 W/m2
12:09 41.9 °F 41.5 °F 30.4 in NW 4.5 mph 6.9 mph 99% 0 in 0 W/m2
12:14 41.9 °F 41.5 °F 30.4 in NNW 4.5 mph 7.6 mph 99% 0 in 0 W/m2
12:19 41.7 °F 41.5 °F 30.4 in NNW 3.8 mph 7.6 mph 99% 0 in 0 W/m2
12:25 41.7 °F 41.5 °F 30.4 in NW 3.8 mph 8.3 mph 99% 0 in 0 W/m2
12:30 41.5 °F 41.4 °F 30.4 in NW 5.4 mph 8.3 mph 99% 0 in 0 W/m2
12:35 41.5 °F 41.4 °F 30.4 in NW 3.8 mph 7.6 mph 99% 0 in 0 W/m2
12:40 41.7 °F 41.5 °F 30.4 in NNW 3.8 mph 7.6 mph 99% 0 in 0 W/m2
12:45 41.5 °F 41.4 °F 30.4 in NNW 5.4 mph 7.6 mph 99% 0 in 0 W/m2
12:50 41.5 °F 41.4 °F 30.4 in NNW 3.1 mph 7.6 mph 99% 0 in 0 W/m2
12:55 41.5 °F 41.4 °F 30.4 in NNW 4.5 mph 7.6 mph 99% 0 in 0 W/m2
13:00 41.5 °F 41.4 °F 30.4 in NNW 3.8 mph 7.6 mph 99% 0 in 0 W/m2
13:05 41.5 °F 41.4 °F 30.4 in NNW 3.1 mph 7.6 mph 99% 0 in 0 W/m2
13:10 41.5 °F 41.4 °F 30.4 in NNW 3.1 mph 7.6 mph 99% 0 in 0 W/m2
13:15 41.5 °F 41.4 °F 30.4 in NNW 3.1 mph 6 mph 99% 0 in 0 W/m2
13:20 41.4 °F 41.2 °F 30.4 in NW 4.5 mph 6.9 mph 99% 0 in 0 W/m2
13:25 41.5 °F 41.4 °F 30.4 in NW 3.8 mph 6.9 mph 99% 0 in 0 W/m2
13:30 41.4 °F 41.2 °F 30.4 in NNW 4.5 mph 6.9 mph 99% 0 in 0 W/m2
13:35 41.5 °F 41.4 °F 30.4 in NNW 4.5 mph 7.6 mph 99% 0 in 0 W/m2
13:41 41.5 °F 41.4 °F 30.4 in NNW 4.5 mph 9.2 mph 99% 0 in 0 W/m2
13:46 41.5 °F 41.4 °F 30.4 in NW 3.8 mph 9.2 mph 99% 0 in 0 W/m2
13:51 41.4 °F 41.2 °F 30.4 in NNW 6 mph 8.3 mph 99% 0 in 0 W/m2
13:55 41.4 °F 41.2 °F 30.4 in NNW 3.8 mph 8.3 mph 99% 0 in 0 W/m2
14:01 41.2 °F 40.8 °F 30.4 in NNW 5.4 mph 8.3 mph 99% 0 in 0 W/m2
14:05 41.2 °F 40.8 °F 30.4 in North 5.4 mph 9.8 mph 99% 0 in 0 W/m2
14:11 41.2 °F 40.8 °F 30.4 in North 4.5 mph 9.8 mph 99% 0 in 0 W/m2
14:16 41.4 °F 41.2 °F 30.4 in NNW 5.4 mph 10.7 mph 99% 0 in 0 W/m2
14:21 41.4 °F 41.2 °F 30.4 in NNW 4.5 mph 10.7 mph 99% 0 in 0 W/m2
14:26 41.5 °F 41.4 °F 30.4 in NNW 4.5 mph 9.8 mph 99% 0 in 0 W/m2
14:31 41.5 °F 41.4 °F 30.4 in NNW 5.4 mph 9.8 mph 99% 0 in 0 W/m2
14:36 41.4 °F 41.2 °F 30.4 in NNW 6 mph 9.2 mph 99% 0 in 0 W/m2
14:40 41 °F 40.6 °F 30.4 in NNW 3.8 mph 8.3 mph 99% 0 in 0 W/m2
14:46 41 °F 40.6 °F 30.4 in NNW 3.1 mph 8.3 mph 99% 0 in 0 W/m2
14:51 40.8 °F 40.6 °F 30.4 in NNW 4.5 mph 6.9 mph 99% 0 in 0 W/m2
14:55 40.6 °F 40.5 °F 30.4 in NNW 4.5 mph 6.9 mph 99% 0 in 2 W/m2
15:00 40.8 °F 40.6 °F 30.4 in NNW 3.8 mph 7.6 mph 99% 0 in 4 W/m2
15:06 40.6 °F 40.5 °F 30.4 in NNW 3.8 mph 7.6 mph 99% 0 in 7 W/m2
15:11 40.6 °F 40.5 °F 30.4 in NNW 5.4 mph 9.2 mph 99% 0 in 10 W/m2
15:15 40.6 °F 40.5 °F 30.4 in NW 3.8 mph 9.2 mph 99% 0 in 13 W/m2
15:20 40.5 °F 40.3 °F 30.4 in NNW 3.8 mph 8.3 mph 99% 0 in 22 W/m2
15:25 40.8 °F 40.6 °F 30.4 in NNW 3.8 mph 7.6 mph 99% 0 in 58 W/m2
15:30 41.2 °F 40.8 °F 30.4 in NNW 5.4 mph 7.6 mph 99% 0 in 73 W/m2
15:35 41.7 °F 41.5 °F 30.4 in NNW 4.5 mph 7.6 mph 99% 0 in 88 W/m2
15:40 42.1 °F 41.7 °F 30.4 in NW 3.8 mph 7.6 mph 99% 0 in 101 W/m2
15:46 42.4 °F 42.3 °F 30.4 in NW 4.5 mph 7.6 mph 99% 0 in 113 W/m2
15:50 42.8 °F 42.3 °F 30.4 in NW 5.4 mph 9.2 mph 98% 0 in 124 W/m2
15:55 43.2 °F 42.6 °F 30.4 in NNW 4.5 mph 9.2 mph 98% 0 in 135 W/m2
16:00 43.7 °F 43 °F 30.4 in NNW 6 mph 9.2 mph 97% 0 in 148 W/m2
16:06 44.1 °F 43 °F 30.4 in NNW 3.8 mph 8.3 mph 96% 0 in 157 W/m2
16:11 44.4 °F 43.2 °F 30.4 in NNW 5.4 mph 8.3 mph 95% 0 in 171 W/m2
16:15 44.8 °F 43 °F 30.4 in NNW 3.8 mph 9.2 mph 93% 0 in 181 W/m2
16:20 45.7 °F 43.5 °F 30.4 in NNW 4.5 mph 9.2 mph 92% 0 in 192 W/m2
16:25 46.2 °F 43.7 °F 30.4 in NNW 4.5 mph 8.3 mph 91% 0 in 203 W/m2
16:30 46.8 °F 43.7 °F 30.4 in NNW 4.5 mph 8.3 mph 89% 0 in 214 W/m2
16:35 46.9 °F 43.3 °F 30.4 in North 6 mph 9.8 mph 87% 0 in 225 W/m2
16:40 47.1 °F 43.5 °F 30.4 in North 5.4 mph 9.8 mph 87% 0 in 239 W/m2
16:45 47.5 °F 43.9 °F 30.4 in NNW 4.5 mph 9.8 mph 87% 0 in 255 W/m2
16:51 48 °F 44.2 °F 30.4 in NNW 3.8 mph 9.2 mph 87% 0 in 267 W/m2
16:55 48.4 °F 44.1 °F 30.4 in NW 5.4 mph 9.2 mph 85% 0 in 278 W/m2
17:00 48.6 °F 44.1 °F 30.4 in NW 5.4 mph 10.7 mph 84% 0 in 287 W/m2
17:06 48.9 °F 44.2 °F 30.4 in NNW 3.8 mph 10.7 mph 84% 0 in 295 W/m2
17:10 49.6 °F 45 °F 30.4 in NNW 5.4 mph 10.7 mph 84% 0 in 303 W/m2
17:15 50.4 °F 45.3 °F 30.4 in NNW 3.1 mph 8.3 mph 83% 0 in 308 W/m2
17:35 51.6 °F 45.7 °F 30.4 in NNW 5.4 mph 9.2 mph 80% 0 in 101 W/m2
17:40 52.3 °F 45.7 °F 30.4 in North 5.4 mph 8.3 mph 78% 0 in 61 W/m2
17:45 52.7 °F 46 °F 30.4 in NNW 6 mph 8.3 mph 78% 0 in 58 W/m2
17:50 52.9 °F 46.2 °F 30.4 in NNW 5.4 mph 8.3 mph 78% 0 in 56 W/m2
17:55 53.2 °F 46.6 °F 30.4 in NNW 3.8 mph 8.3 mph 78% 0 in 54 W/m2
18:00 53.6 °F 46.2 °F 30.4 in NW 2.2 mph 7.6 mph 76% 0 in 54 W/m2
18:05 54.1 °F 46.4 °F 30.4 in NW 3.8 mph 8.3 mph 75% 0 in 54 W/m2
18:10 54.5 °F 46.8 °F 30.4 in NNW 6 mph 9.2 mph 75% 0 in 56 W/m2
18:15 54.5 °F 46.8 °F 30.4 in NNW 3.8 mph 9.2 mph 75% 0 in 104 W/m2
18:20 55 °F 47.3 °F 30.4 in NW 3.8 mph 8.3 mph 75% 0 in 227 W/m2
18:25 55.2 °F 47.5 °F 30.4 in NW 2.2 mph 8.3 mph 75% 0 in 331 W/m2
18:30 55.9 °F 48 °F 30.4 in NNW 2.2 mph 7.6 mph 75% 0 in 348 W/m2
18:35 56.7 °F 48.7 °F 30.4 in NNW 2.2 mph 6 mph 75% 0 in 355 W/m2
18:40 56.7 °F 48 °F 30.4 in NNW 3.8 mph 7.6 mph 73% 0 in 358 W/m2
18:45 56.7 °F 48.6 °F 30.4 in NNW 3.1 mph 7.6 mph 74% 0 in 365 W/m2
18:50 57 °F 49.3 °F 30.4 in Calm   6.9 mph 75% 0 in 369 W/m2
18:55 57.7 °F 49.5 °F 30.4 in NW 1.6 mph 6 mph 74% 0 in 372 W/m2
19:00 57.9 °F 48.9 °F 30.4 in NW 2.2 mph 5.4 mph 72% 0 in 375 W/m2
19:05 58.1 °F 48.7 °F 30.4 in Calm   5.4 mph 71% 0 in 379 W/m2
19:10 58.6 °F 49.3 °F 30.4 in Calm   4.5 mph 71% 0 in 382 W/m2
19:15 59.5 °F 49.8 °F 30.4 in Calm   3.8 mph 70% 0 in 384 W/m2
19:20 60.1 °F 49.8 °F 30.4 in Calm   2.2 mph 69% 0 in 386 W/m2
19:25 61.7 °F 50.5 °F 30.4 in Calm   2.2 mph 67% 0 in 388 W/m2
19:30 63 °F 50.5 °F 30.4 in Calm     64% 0 in 389 W/m2
19:35 63.9 °F 51.1 °F 30.4 in Calm     63% 0 in 390 W/m2
19:40 64 °F 50.4 °F 30.4 in Calm   3.1 mph 61% 0 in 388 W/m2
19:45 63.7 °F 50.4 °F 30.4 in SSW 3.1 mph 5.4 mph 62% 0 in 387 W/m2
19:51 62.6 °F 49.8 °F 30.4 in SW 3.1 mph 6 mph 63% 0 in 382 W/m2
19:56 61.7 °F 51.1 °F 30.4 in SW 5.4 mph 6.9 mph 68% 0 in 379 W/m2
20:01 61.3 °F 51.1 °F 30.4 in SW 3.1 mph 7.6 mph 69% 0 in 377 W/m2
20:06 61.9 °F 52 °F 30.4 in SW 3.8 mph 7.6 mph 70% 0 in 376 W/m2
20:26 62.2 °F 51.3 °F 30.4 in South 3.8 mph 7.6 mph 67% 0 in 364 W/m2
20:31 62.2 °F 50.7 °F 30.4 in South 3.8 mph 7.6 mph 66% 0 in 360 W/m2
20:36 62.6 °F 49.8 °F 30.4 in South 5.4 mph 7.6 mph 63% 0 in 358 W/m2
20:41 62.8 °F 50.4 °F 30.4 in SSW 4.5 mph 6.9 mph 64% 0 in 354 W/m2
20:46 62.6 °F 50.4 °F 30.3 in SSW 6 mph 8.3 mph 64% 0 in 349 W/m2
20:51 62.4 °F 50.5 °F 30.3 in SSW 3.1 mph 8.3 mph 65% 0 in 343 W/m2
20:56 62.8 °F 50 °F 30.3 in SSW 6.9 mph 8.3 mph 63% 0 in 339 W/m2
21:01 61.9 °F 49.6 °F 30.3 in SSW 4.5 mph 8.3 mph 64% 0 in 331 W/m2
21:06 62.1 °F 49.8 °F 30.3 in SSW 5.4 mph 8.3 mph 64% 0 in 322 W/m2
21:11 62.2 °F 49.5 °F 30.3 in SSW 4.5 mph 7.6 mph 63% 0 in 311 W/m2
21:16 62.4 °F 50.2 °F 30.3 in SSW 3.8 mph 7.6 mph 64% 0 in 293 W/m2
21:21 62.4 °F 50.2 °F 30.3 in SSW 6 mph 7.6 mph 64% 0 in 273 W/m2
21:26 62.8 °F 50.4 °F 30.3 in South 5.4 mph 7.6 mph 64% 0 in 223 W/m2
21:31 62.8 °F 50.9 °F 30.3 in South 5.4 mph 7.6 mph 65% 0 in 177 W/m2
21:36 63 °F 51.1 °F 30.3 in South 5.4 mph 6.9 mph 65% 0 in 134 W/m2
21:41 63.3 °F 51.4 °F 30.3 in South 5.4 mph 7.6 mph 65% 0 in 96 W/m2
21:46 63.3 °F 51.1 °F 30.3 in South 6 mph 7.6 mph 64% 0 in 70 W/m2
21:51 62.6 °F 51.1 °F 30.3 in Calm   8.3 mph 66% 0 in 67 W/m2
21:56 63.9 °F 52 °F 30.3 in SSE 3.1 mph 8.3 mph 65% 0 in 66 W/m2
22:01 63.7 °F 51.3 °F 30.3 in South 3.8 mph 7.6 mph 64% 0 in 66 W/m2
22:06 63.9 °F 52 °F 30.3 in South 3.8 mph 7.6 mph 65% 0 in 67 W/m2
22:12 64 °F 52.9 °F 30.3 in South 6.9 mph 7.6 mph 67% 0 in 70 W/m2
22:17 63.3 °F 51.8 °F 30.3 in South 5.4 mph 8.3 mph 66% 0 in 71 W/m2
22:22 63.1 °F 52.3 °F 30.3 in South 5.4 mph 8.3 mph 68% 0 in 73 W/m2
22:27 63.5 °F 52.9 °F 30.3 in South 5.4 mph 7.6 mph 68% 0 in 74 W/m2
22:32 63.7 °F 52.9 °F 30.3 in South 3.8 mph 6.9 mph 68% 0 in 74 W/m2
22:37 64 °F 53.8 °F 30.3 in South 3.8 mph 6.9 mph 69% 0 in 75 W/m2
22:42 64 °F 53.8 °F 30.3 in SSW 3.1 mph 6.9 mph 69% 0 in 76 W/m2
22:47 64.4 °F 54 °F 30.3 in SSW 2.2 mph 6.9 mph 69% 0 in 75 W/m2
22:52 64.4 °F 53.6 °F 30.3 in SSW 3.8 mph 6.9 mph 68% 0 in 87 W/m2
22:57 64.4 °F 53.6 °F 30.3 in South 3.8 mph 6.9 mph 68% 0 in 115 W/m2
23:02 64.4 °F 53.6 °F 30.3 in South 3.8 mph 7.6 mph 68% 0 in 155 W/m2
23:07 63.9 °F 53.4 °F 30.3 in SSW 3.1 mph 7.6 mph 69% 0 in 183 W/m2
23:12 63.7 °F 53.8 °F 30.3 in South 5.4 mph 6.9 mph 70% 0 in 186 W/m2
23:17 64.2 °F 54.7 °F 30.3 in South 4.5 mph 6.9 mph 71% 0 in 179 W/m2
23:22 64.2 °F 54.1 °F 30.3 in South 3.8 mph 6.9 mph 70% 0 in 173 W/m2
23:27 64.8 °F 54.3 °F 30.3 in South 6 mph 6.9 mph 69% 0 in 164 W/m2
23:32 65.1 °F 54.3 °F 30.3 in South 3.1 mph 6.9 mph 68% 0 in 163 W/m2
23:37 65.7 °F 54.9 °F 30.3 in SSE 3.1 mph 6.9 mph 68% 0 in 158 W/m2
23:42 63.9 °F 53.4 °F 30.3 in South 3.8 mph 6.9 mph 69% 0 in 80 W/m2
23:47 62.2 °F 53.4 °F 30.3 in South 3.1 mph 6.9 mph 73% 0 in 79 W/m2
23:52 62.6 °F 53.4 °F 30.3 in South 3.8 mph 6 mph 72% 0 in 97 W/m2
23:57 62.1 °F 53.2 °F 30.3 in South 3.8 mph 6 mph 73% 0 in 77 W/m2
Northern Hawkes Bay. New Zealand Historic Data
Compliments of Weather Underground - 2 mb